Time;durP1;ratioP1;P1;durP2;ratioP2;P2;SDS_P1;SDS_P2;PMS_P1;PMS_P2;Temp;Humidity;BMP_temperature;BMP_pressure;BME280_temperature;BME280_humidity;BME280_pressure;Samples;Min_cycle;Max_cycle;Signal;HPM_P1;HPM_P2
2021/08/15 00:04:01;;;;;;;9.97;9.17;;;26.10;36.60;;;;;;10380312;28;20237;-70
2021/08/15 00:09:05;;;;;;;9.20;8.40;;;26.10;37.30;;;;;;10364265;28;20699;-70
2021/08/15 00:14:08;;;;;;;9.97;9.17;;;26.10;36.80;;;;;;10365896;28;20242;-71
2021/08/15 00:19:13;;;;;;;8.57;7.77;;;26.00;36.90;;;;;;10372260;28;20308;-71
2021/08/15 00:24:17;;;;;;;9.90;8.57;;;26.00;37.50;;;;;;10365528;28;20242;-70
2021/08/15 00:29:20;;;;;;;9.67;7.70;;;25.90;37.20;;;;;;10370610;28;20237;-70
2021/08/15 00:34:24;;;;;;;7.80;7.20;;;25.80;37.20;;;;;;10367939;28;20235;-71
2021/08/15 00:39:28;;;;;;;8.87;8.10;;;25.80;37.70;;;;;;10359957;28;20241;-71
2021/08/15 00:44:31;;;;;;;9.77;8.43;;;25.80;37.60;;;;;;10364984;28;20226;-71
2021/08/15 00:49:35;;;;;;;8.73;7.93;;;25.80;37.60;;;;;;10365440;28;20238;-71
2021/08/15 00:54:39;;;;;;;9.20;8.33;;;25.80;38.10;;;;;;10350045;28;20594;-71
2021/08/15 00:59:43;;;;;;;8.47;7.67;;;25.80;37.70;;;;;;10362113;28;20249;-71
2021/08/15 01:04:48;;;;;;;8.87;7.97;;;25.70;37.90;;;;;;10370535;28;20233;-71
2021/08/15 01:09:52;;;;;;;7.50;6.90;;;25.70;38.20;;;;;;10370728;28;20249;-70
2021/08/15 01:14:56;;;;;;;8.77;8.03;;;25.70;37.70;;;;;;10367433;28;20229;-71
2021/08/15 01:20:02;;;;;;;7.63;7.00;;;25.60;38.00;;;;;;10367130;28;20242;-71
2021/08/15 01:25:06;;;;;;;9.23;8.30;;;25.60;38.00;;;;;;10376371;28;20667;-71
2021/08/15 01:30:13;;;;;;;8.17;7.47;;;25.60;37.90;;;;;;10365097;28;20256;-71
2021/08/15 01:35:16;;;;;;;9.27;8.47;;;25.50;38.20;;;;;;10354898;28;20241;-71
2021/08/15 01:40:19;;;;;;;7.57;6.97;;;25.50;37.80;;;;;;10349517;28;20362;-71
2021/08/15 01:45:23;;;;;;;8.10;7.40;;;25.50;37.80;;;;;;10361593;28;20705;-71
2021/08/15 01:50:27;;;;;;;8.30;7.60;;;25.50;38.10;;;;;;10352897;28;20746;-71
2021/08/15 01:55:30;;;;;;;8.97;8.17;;;25.40;37.80;;;;;;10361256;28;20245;-71
2021/08/15 02:00:35;;;;;;;8.20;7.50;;;25.40;37.80;;;;;;10373829;28;20241;-71
2021/08/15 02:05:40;;;;;;;8.63;7.83;;;25.40;38.20;;;;;;10358074;28;20233;-70
2021/08/15 02:10:43;;;;;;;8.27;7.57;;;25.30;38.70;;;;;;10369661;28;20805;-71
2021/08/15 02:15:48;;;;;;;8.40;7.70;;;25.30;37.90;;;;;;10362881;28;20223;-71
2021/08/15 02:20:51;;;;;;;9.40;8.40;;;25.20;38.20;;;;;;10356929;28;20253;-71
2021/08/15 02:25:54;;;;;;;8.47;7.67;;;25.20;38.00;;;;;;10366834;28;20226;-71
2021/08/15 02:30:59;;;;;;;7.80;7.20;;;25.10;38.00;;;;;;10371520;28;20242;-70
2021/08/15 02:36:02;;;;;;;7.80;7.10;;;25.10;38.50;;;;;;10372848;28;20253;-71
2021/08/15 02:41:06;;;;;;;6.93;6.37;;;25.10;38.00;;;;;;10371551;28;20230;-71
2021/08/15 02:46:10;;;;;;;7.97;7.27;;;25.00;38.00;;;;;;10365115;28;20241;-71
2021/08/15 02:51:13;;;;;;;7.70;6.90;;;24.90;38.60;;;;;;10364265;28;20625;-72
2021/08/15 02:56:17;;;;;;;7.53;6.80;;;24.90;38.30;;;;;;10365628;28;20233;-71
2021/08/15 03:01:21;;;;;;;7.27;6.57;;;24.80;38.40;;;;;;10373157;28;20235;-71
2021/08/15 03:06:25;;;;;;;7.00;6.40;;;24.70;38.70;;;;;;10363254;28;20250;-70
2021/08/15 03:11:28;;;;;;;8.00;7.20;;;24.70;38.50;;;;;;10373832;28;20230;-71
2021/08/15 03:16:32;;;;;;;8.07;7.40;;;24.70;38.80;;;;;;10369821;28;20226;-71
2021/08/15 03:21:39;;;;;;;7.83;7.03;;;24.60;39.20;;;;;;10367787;28;20226;-71
2021/08/15 03:26:45;;;;;;;8.23;7.37;;;24.60;39.00;;;;;;10362696;28;20634;-71
2021/08/15 03:31:49;;;;;;;8.80;8.00;;;24.50;39.10;;;;;;10368055;28;20234;-71
2021/08/15 03:36:53;;;;;;;9.20;7.17;;;24.50;39.60;;;;;;10367183;28;20654;-71
2021/08/15 03:41:58;;;;;;;7.87;7.17;;;24.40;39.10;;;;;;10360526;28;20230;-71
2021/08/15 03:47:03;;;;;;;7.70;7.07;;;24.40;39.30;;;;;;10356568;28;20249;-71
2021/08/15 03:52:07;;;;;;;8.93;8.13;;;24.40;39.40;;;;;;10361850;28;20310;-71
2021/08/15 03:57:10;;;;;;;8.60;7.80;;;24.40;39.20;;;;;;10361608;28;20223;-71
2021/08/15 04:02:14;;;;;;;8.17;7.50;;;24.30;39.10;;;;;;10363290;28;20238;-71
2021/08/15 04:07:18;;;;;;;8.27;7.40;;;24.20;39.40;;;;;;10367685;28;20725;-70
2021/08/15 04:12:21;;;;;;;7.50;6.80;;;24.10;39.10;;;;;;10360982;28;20238;-71
2021/08/15 04:17:25;;;;;;;7.63;6.93;;;24.10;39.40;;;;;;10360954;28;20238;-71
2021/08/15 04:22:28;;;;;;;7.17;6.50;;;24.10;40.10;;;;;;10362894;28;20738;-71
2021/08/15 04:27:32;;;;;;;7.70;7.00;;;24.00;39.50;;;;;;10360801;28;20234;-71
2021/08/15 04:32:36;;;;;;;8.10;7.47;;;24.00;40.00;;;;;;10358973;28;20240;-71
2021/08/15 04:37:40;;;;;;;8.00;7.40;;;23.80;39.80;;;;;;10366384;28;20229;-70
2021/08/15 04:42:43;;;;;;;8.80;8.00;;;23.80;39.80;;;;;;10364472;28;20236;-71
2021/08/15 04:47:47;;;;;;;7.33;6.63;;;23.80;39.80;;;;;;10363325;28;20225;-71
2021/08/15 04:52:51;;;;;;;7.73;7.10;;;23.70;39.80;;;;;;10363816;28;20226;-72
2021/08/15 04:57:54;;;;;;;8.00;7.30;;;23.70;39.80;;;;;;10358117;28;20222;-71
2021/08/15 05:02:59;;;;;;;9.23;8.43;;;23.70;39.80;;;;;;10372131;28;20237;-71
2021/08/15 05:08:03;;;;;;;9.83;8.93;;;23.70;41.20;;;;;;10353806;28;20316;-71
2021/08/15 05:13:06;;;;;;;11.20;10.20;;;23.70;40.80;;;;;;10350732;28;20395;-71
2021/08/15 05:18:11;;;;;;;10.30;9.40;;;23.70;41.00;;;;;;10354058;28;20228;-71
2021/08/15 05:23:14;;;;;;;9.67;8.77;;;23.60;41.70;;;;;;10363492;28;20766;-71
2021/08/15 05:28:17;;;;;;;9.67;8.67;;;23.60;41.40;;;;;;10351722;28;20257;-72
2021/08/15 05:33:22;;;;;;;9.57;8.77;;;23.60;41.70;;;;;;10357902;28;20699;-72
2021/08/15 05:38:26;;;;;;;8.70;7.90;;;23.60;42.40;;;;;;10347660;28;20711;-71
2021/08/15 05:43:29;;;;;;;9.37;8.10;;;23.60;41.80;;;;;;10360680;28;20588;-71
2021/08/15 05:48:34;;;;;;;8.80;8.10;;;23.60;42.00;;;;;;10371378;28;20238;-71
2021/08/15 05:53:37;;;;;;;9.43;7.50;;;23.60;42.50;;;;;;10366030;28;20234;-71
2021/08/15 05:58:40;;;;;;;10.60;9.50;;;23.70;42.20;;;;;;10361864;28;20230;-71
2021/08/15 06:03:45;;;;;;;10.07;9.17;;;23.70;42.60;;;;;;10370009;28;20648;-72
2021/08/15 06:08:48;;;;;;;10.60;9.53;;;23.80;43.50;;;;;;10369137;28;20229;-72
2021/08/15 06:13:52;;;;;;;10.57;9.67;;;23.80;42.90;;;;;;10366525;28;20227;-71
2021/08/15 06:18:57;;;;;;;11.37;10.30;;;23.90;43.00;;;;;;10361470;28;20308;-71
2021/08/15 06:24:01;;;;;;;11.87;10.67;;;24.00;43.90;;;;;;10374329;28;20752;-71
2021/08/15 06:29:04;;;;;;;11.00;10.00;;;24.10;43.50;;;;;;10367594;28;20257;-72
2021/08/15 06:34:08;;;;;;;13.10;10.60;;;24.20;43.40;;;;;;10367460;28;20246;-71
2021/08/15 06:39:12;;;;;;;11.80;10.77;;;24.30;43.90;;;;;;10360074;28;20231;-71
2021/08/15 06:44:15;;;;;;;11.60;10.50;;;24.30;43.60;;;;;;10368264;28;20238;-71
2021/08/15 06:49:20;;;;;;;10.80;9.73;;;24.50;43.70;;;;;;10365503;28;20325;-71
2021/08/15 06:54:23;;;;;;;10.80;9.80;;;24.60;42.90;;;;;;10362045;28;20238;-71
2021/08/15 06:59:26;;;;;;;10.97;9.90;;;24.70;42.60;;;;;;10375349;28;20236;-71
2021/08/15 07:04:31;;;;;;;10.97;9.97;;;24.80;42.60;;;;;;10372617;28;20234;-71
2021/08/15 07:09:34;;;;;;;11.27;10.27;;;24.90;42.50;;;;;;10363034;28;20241;-71
2021/08/15 07:14:41;;;;;;;11.23;10.13;;;25.10;42.40;;;;;;10365761;28;20698;-71
2021/08/15 07:19:46;;;;;;;10.67;9.87;;;25.20;42.50;;;;;;10360188;28;20230;-70
2021/08/15 07:24:49;;;;;;;10.90;10.00;;;25.40;42.60;;;;;;10372879;28;20226;-72
2021/08/15 07:29:53;;;;;;;11.60;10.60;;;25.40;42.40;;;;;;10360493;28;20792;-71
2021/08/15 07:34:57;;;;;;;11.00;10.00;;;25.60;42.70;;;;;;10368986;28;20233;-71
2021/08/15 07:40:01;;;;;;;10.00;9.20;;;25.70;42.80;;;;;;10370134;28;20258;-71
2021/08/15 07:45:05;;;;;;;9.67;8.87;;;25.90;42.40;;;;;;10362620;28;20248;-71
2021/08/15 07:50:10;;;;;;;9.50;8.80;;;26.10;42.30;;;;;;10362964;28;20230;-69
2021/08/15 07:55:14;;;;;;;9.97;9.17;;;26.30;41.90;;;;;;10351830;28;20760;-72
2021/08/15 08:00:17;;;;;;;10.83;9.83;;;26.50;41.90;;;;;;10356742;28;20234;-72
2021/08/15 08:05:22;;;;;;;10.07;9.17;;;26.70;42.00;;;;;;10369601;28;20230;-71
2021/08/15 08:10:25;;;;;;;10.17;9.03;;;27.00;42.00;;;;;;10362475;28;20234;-71
2021/08/15 08:15:28;;;;;;;12.53;8.83;;;27.30;41.50;;;;;;10372188;28;20760;-72
2021/08/15 08:20:35;;;;;;;10.20;9.20;;;27.60;40.90;;;;;;10357938;28;20230;-71
2021/08/15 08:25:39;;;;;;;8.70;8.00;;;27.80;40.40;;;;;;10370645;28;20260;-72
2021/08/15 08:30:43;;;;;;;8.43;7.63;;;28.10;39.60;;;;;;10367606;28;20229;-72
2021/08/15 08:35:47;;;;;;;8.13;7.37;;;28.40;39.00;;;;;;10383016;28;20284;-72
2021/08/15 08:40:51;;;;;;;8.60;7.53;;;28.60;38.60;;;;;;10364239;28;20227;-72
2021/08/15 08:45:55;;;;;;;9.90;7.30;;;28.90;38.10;;;;;;10364323;28;20732;-72
2021/08/15 08:51:00;;;;;;;7.43;6.80;;;29.10;37.70;;;;;;10369561;28;20236;-72
2021/08/15 08:56:04;;;;;;;7.20;6.60;;;29.40;36.80;;;;;;10362356;28;20669;-72
2021/08/15 09:01:07;;;;;;;6.87;6.27;;;29.60;35.80;;;;;;10361274;28;20399;-71
2021/08/15 09:06:22;;;;;;;6.17;5.73;;;29.90;35.90;;;;;;10367633;28;20245;-71
2021/08/15 09:11:27;;;;;;;6.40;5.90;;;30.10;33.70;;;;;;10360675;28;20741;-72
2021/08/15 09:16:52;;;;;;;7.07;6.40;;;30.40;33.70;;;;;;10365718;28;20234;-72
2021/08/15 09:21:58;;;;;;;6.87;6.27;;;30.70;33.00;;;;;;10361140;28;20777;-72
2021/08/15 09:27:03;;;;;;;6.50;5.97;;;30.90;32.10;;;;;;10372407;28;20308;-72
2021/08/15 09:32:06;;;;;;;6.63;6.00;;;31.10;32.60;;;;;;10364633;28;20257;-72
2021/08/15 09:37:19;;;;;;;5.83;5.43;;;31.20;32.30;;;;;;10364405;28;20265;-72
2021/08/15 09:42:40;;;;;;;7.10;6.20;;;31.40;30.40;;;;;;10370319;28;20242;-72
2021/08/15 09:47:43;;;;;;;6.90;6.20;;;31.60;31.20;;;;;;10360504;28;20225;-72
2021/08/15 09:52:48;;;;;;;6.53;6.03;;;31.70;31.30;;;;;;10379064;28;20229;-72
2021/08/15 09:57:51;;;;;;;7.07;6.47;;;31.90;30.20;;;;;;10357265;28;20268;-72
2021/08/15 10:02:56;;;;;;;6.83;6.27;;;32.10;30.30;;;;;;10349831;28;20230;-73
2021/08/15 10:08:02;;;;;;;6.93;6.33;;;32.20;30.00;;;;;;10365568;28;20224;-72
2021/08/15 10:13:06;;;;;;;7.50;6.90;;;32.30;29.00;;;;;;10345977;28;20223;-73
2021/08/15 10:18:12;;;;;;;7.73;6.63;;;32.40;29.80;;;;;;10355247;28;20241;-73
2021/08/15 10:23:18;;;;;;;7.43;6.63;;;32.50;28.50;;;;;;10356925;28;20229;-72
2021/08/15 10:28:40;;;;;;;7.43;6.83;;;32.70;28.50;;;;;;10350044;28;21189;-73
2021/08/15 10:33:53;;;;;;;7.33;6.23;;;32.90;28.70;;;;;;10349479;28;20241;-73
2021/08/15 10:39:00;;;;;;;6.83;6.30;;;33.00;28.10;;;;;;10369832;28;20229;-73
2021/08/15 10:44:04;;;;;;;7.47;6.87;;;33.10;27.70;;;;;;10372450;28;20233;-72
2021/08/15 10:49:09;;;;;;;7.60;6.90;;;33.20;28.50;;;;;;10379793;28;20235;-73
2021/08/15 10:55:06;;;;;;;7.43;6.50;;;33.30;27.90;;;;;;10375709;28;20244;-71
2021/08/15 11:00:47;;;;;;;7.90;6.90;;;33.40;28.20;;;;;;10366004;28;20238;-70
2021/08/15 11:05:51;;;;;;;8.47;6.27;;;33.40;28.00;;;;;;10383237;28;20234;-70
2021/08/15 11:11:05;;;;;;;6.90;6.40;;;33.40;27.80;;;;;;10359591;28;20226;-69
2021/08/15 11:16:46;;;;;;;6.80;6.30;;;33.50;27.20;;;;;;10376130;28;20230;-70
2021/08/15 11:22:14;;;;;;;6.93;6.33;;;33.50;27.80;;;;;;10314763;28;20317;-71
2021/08/15 11:27:25;;;;;;;8.50;6.67;;;33.60;27.30;;;;;;10367505;28;20687;-70
2021/08/15 11:32:32;;;;;;;6.97;6.37;;;33.80;26.00;;;;;;10371810;28;20238;-70
2021/08/15 11:37:37;;;;;;;7.13;6.53;;;33.80;26.00;;;;;;10368854;28;20230;-71
2021/08/15 11:42:41;;;;;;;8.53;6.57;;;33.90;26.50;;;;;;10381488;28;20317;-71
2021/08/15 11:47:45;;;;;;;6.70;6.20;;;33.90;26.90;;;;;;10375989;28;20230;-70
2021/08/15 11:52:50;;;;;;;7.40;6.63;;;34.00;26.30;;;;;;10363873;28;20238;-71
2021/08/15 11:57:54;;;;;;;7.23;6.50;;;34.10;26.00;;;;;;10366856;28;20600;-71
2021/08/15 12:03:07;;;;;;;6.60;6.10;;;34.20;25.60;;;;;;10393015;28;20706;-71
2021/08/15 12:08:12;;;;;;;7.07;6.43;;;34.20;25.20;;;;;;10366388;28;20277;-70
2021/08/15 12:13:20;;;;;;;7.33;6.50;;;34.30;25.40;;;;;;10356592;28;20266;-71
2021/08/15 12:18:43;;;;;;;7.40;6.70;;;34.20;24.90;;;;;;10354815;28;20245;-71
2021/08/15 12:24:02;;;;;;;7.13;6.50;;;34.10;25.30;;;;;;10354887;28;20233;-71
2021/08/15 12:29:09;;;;;;;7.37;6.67;;;34.10;24.90;;;;;;10348237;28;20230;-70
2021/08/15 12:34:18;;;;;;;7.40;6.80;;;34.10;24.40;;;;;;10349060;28;20243;-70
2021/08/15 12:39:28;;;;;;;7.33;6.63;;;34.00;24.30;;;;;;10355601;28;20230;-70
2021/08/15 12:44:33;;;;;;;6.97;6.33;;;34.00;24.20;;;;;;10353941;28;20234;-70
2021/08/15 12:49:40;;;;;;;7.13;6.43;;;34.00;24.50;;;;;;10357401;28;20235;-71
2021/08/15 12:55:05;;;;;;;7.53;6.93;;;34.10;24.10;;;;;;10350328;28;20237;-70
2021/08/15 13:00:10;;;;;;;6.90;6.20;;;34.10;25.00;;;;;;10351026;28;20230;-71
2021/08/15 13:05:15;;;;;;;6.77;6.07;;;34.10;24.40;;;;;;10351578;28;20234;-71
2021/08/15 13:10:19;;;;;;;7.57;6.87;;;34.10;24.50;;;;;;10361925;28;20228;-71
2021/08/15 13:15:23;;;;;;;7.27;6.57;;;34.00;24.70;;;;;;10348475;28;20235;-72
2021/08/15 13:20:32;;;;;;;7.03;6.40;;;34.10;24.60;;;;;;10347329;28;20668;-71
2021/08/15 13:25:35;;;;;;;6.97;6.37;;;34.10;24.00;;;;;;10352536;28;20230;-72
2021/08/15 13:30:38;;;;;;;7.23;6.53;;;34.10;24.70;;;;;;10352915;28;20317;-71
2021/08/15 13:35:43;;;;;;;7.40;6.50;;;34.10;24.50;;;;;;10346243;28;20230;-71
2021/08/15 13:40:46;;;;;;;7.57;6.27;;;34.20;23.90;;;;;;10349042;28;20221;-71
2021/08/15 13:45:50;;;;;;;7.20;6.70;;;34.20;24.30;;;;;;10351528;28;20234;-71
2021/08/15 13:50:54;;;;;;;8.53;7.20;;;34.20;23.90;;;;;;10340452;28;20257;-71
2021/08/15 13:55:58;;;;;;;7.33;6.63;;;34.20;23.40;;;;;;10348051;28;20228;-72
2021/08/15 14:01:01;;;;;;;7.57;6.90;;;34.20;23.80;;;;;;10345852;28;20250;-70
2021/08/15 14:06:08;;;;;;;7.57;6.80;;;34.20;23.80;;;;;;10343350;28;20278;-72
2021/08/15 14:11:11;;;;;;;7.10;6.50;;;34.20;23.30;;;;;;10345158;28;20239;-71
2021/08/15 14:16:15;;;;;;;7.77;6.97;;;34.20;23.80;;;;;;10345098;28;20728;-69
2021/08/15 14:21:22;;;;;;;6.97;6.27;;;34.20;24.10;;;;;;10352378;28;20731;-71
2021/08/15 14:26:26;;;;;;;8.53;6.90;;;34.10;24.10;;;;;;10345575;28;20241;-71
2021/08/15 14:31:30;;;;;;;7.03;6.47;;;34.10;24.00;;;;;;10365852;28;20719;-72
2021/08/15 14:36:35;;;;;;;6.97;6.30;;;34.00;24.10;;;;;;10355320;28;20309;-72
2021/08/15 14:41:39;;;;;;;7.53;6.70;;;34.00;24.00;;;;;;10352360;28;20742;-70
2021/08/15 14:46:42;;;;;;;7.67;6.83;;;33.90;24.40;;;;;;10350984;28;20793;-70
2021/08/15 14:51:47;;;;;;;7.20;6.50;;;33.90;24.60;;;;;;10352158;28;20238;-71
2021/08/15 14:56:50;;;;;;;7.23;6.50;;;33.80;24.50;;;;;;10348358;28;20258;-71
2021/08/15 15:01:53;;;;;;;7.50;6.80;;;33.70;24.50;;;;;;10346672;28;20238;-70
2021/08/15 15:06:58;;;;;;;7.23;6.67;;;33.60;24.50;;;;;;10349900;28;20314;-69
2021/08/15 15:12:03;;;;;;;7.10;6.30;;;33.40;24.80;;;;;;10351701;28;20222;-71
2021/08/15 15:17:07;;;;;;;9.47;6.80;;;33.30;24.90;;;;;;10347426;28;20321;-70
2021/08/15 15:22:12;;;;;;;15.60;5.70;;;33.10;25.20;;;;;;10359110;28;20773;-71
2021/08/15 15:27:16;;;;;;;7.03;3.97;;;32.80;22.60;;;;;;10347979;28;20723;-75
2021/08/15 15:32:19;;;;;;;6.70;3.97;;;32.00;23.70;;;;;;10347527;28;20234;-73
2021/08/15 15:37:24;;;;;;;7.70;3.67;;;30.80;25.10;;;;;;10339984;28;20326;-76
2021/08/15 15:42:27;;;;;;;5.60;3.60;;;29.50;26.60;;;;;;10348316;28;20296;-76
2021/08/15 15:47:31;;;;;;;4.20;3.37;;;28.40;27.00;;;;;;10350571;28;20234;-75
2021/08/15 15:52:36;;;;;;;3.37;2.73;;;27.50;27.90;;;;;;10347100;28;20230;-75
2021/08/15 15:57:40;;;;;;;4.73;2.90;;;27.00;29.00;;;;;;10337669;28;20238;-74
2021/08/15 16:02:45;;;;;;;3.00;2.60;;;26.70;29.60;;;;;;10350994;28;20242;-76
2021/08/15 16:07:51;;;;;;;3.83;2.60;;;26.50;29.50;;;;;;10351027;28;20258;-75
2021/08/15 16:12:58;;;;;;;4.80;2.70;;;26.50;30.80;;;;;;10345978;28;20319;-74
2021/08/15 16:18:02;;;;;;;5.10;2.60;;;26.50;30.00;;;;;;10358360;28;20317;-74
2021/08/15 16:23:06;;;;;;;3.50;2.43;;;26.40;30.50;;;;;;10357462;28;20238;-74
2021/08/15 16:28:09;;;;;;;4.93;2.80;;;26.40;31.50;;;;;;10354197;28;20230;-74
2021/08/15 16:33:13;;;;;;;3.87;2.50;;;26.40;31.10;;;;;;10354278;28;20633;-73
2021/08/15 16:38:18;;;;;;;6.63;2.83;;;26.40;31.40;;;;;;10350539;28;20234;-74
2021/08/15 16:43:21;;;;;;;3.93;2.50;;;26.40;32.50;;;;;;10350998;28;20806;-73
2021/08/15 16:48:24;;;;;;;4.17;2.60;;;26.40;31.80;;;;;;10352174;28;20234;-73
2021/08/15 16:53:29;;;;;;;5.93;2.47;;;26.40;31.80;;;;;;10353771;28;20313;-73
2021/08/15 16:58:32;;;;;;;3.60;2.50;;;26.40;32.40;;;;;;10357078;28;20252;-72
2021/08/15 17:03:35;;;;;;;3.70;2.47;;;26.50;32.20;;;;;;10354566;28;20249;-72
2021/08/15 17:08:41;;;;;;;3.00;2.70;;;26.50;32.20;;;;;;10352614;28;20242;-73
2021/08/15 17:13:44;;;;;;;5.37;2.80;;;26.60;32.90;;;;;;10357209;28;20230;-72
2021/08/15 17:18:53;;;;;;;5.77;2.80;;;26.50;32.60;;;;;;10355454;28;20234;-73
2021/08/15 17:23:57;;;;;;;4.13;3.20;;;26.40;32.70;;;;;;10354328;28;20715;-71
2021/08/15 17:29:01;;;;;;;3.80;3.30;;;26.00;34.20;;;;;;10349783;28;20698;-71
2021/08/15 17:34:04;;;;;;;4.93;3.60;;;25.60;34.00;;;;;;10357082;28;20222;-71
2021/08/15 17:39:09;;;;;;;10.87;3.33;;;25.30;34.40;;;;;;10357221;28;20230;-71
2021/08/15 17:44:12;;;;;;;5.53;3.00;;;25.10;35.80;;;;;;10353003;28;20234;-71
2021/08/15 17:49:15;;;;;;;4.97;3.17;;;25.00;35.00;;;;;;10366792;28;20239;-71
2021/08/15 17:54:20;;;;;;;3.77;3.30;;;24.90;35.60;;;;;;10367476;28;20252;-71
2021/08/15 17:59:23;;;;;;;4.13;3.60;;;24.90;36.70;;;;;;10371984;28;20738;-70
2021/08/15 18:04:26;;;;;;;4.60;3.77;;;24.80;35.90;;;;;;10383190;28;20352;-71
2021/08/15 18:09:31;;;;;;;3.50;3.20;;;24.80;36.20;;;;;;10371603;28;20228;-71
2021/08/15 18:14:34;;;;;;;4.77;3.23;;;24.90;37.20;;;;;;10366914;28;20238;-71
2021/08/15 18:19:38;;;;;;;3.93;3.23;;;24.90;36.30;;;;;;10369247;28;20234;-71
2021/08/15 18:24:43;;;;;;;4.57;3.60;;;24.90;36.70;;;;;;10369639;28;20317;-71
2021/08/15 18:29:47;;;;;;;5.13;3.40;;;24.90;37.20;;;;;;10369345;28;20599;-71
2021/08/15 18:34:50;;;;;;;5.17;3.60;;;25.00;36.70;;;;;;10366202;28;20240;-71
2021/08/15 18:39:55;;;;;;;4.97;3.57;;;25.00;36.70;;;;;;10369799;28;20230;-71
2021/08/15 18:44:58;;;;;;;4.80;3.30;;;25.00;37.10;;;;;;10369475;28;20233;-71
2021/08/15 18:50:03;;;;;;;5.27;3.57;;;24.90;36.40;;;;;;10375323;28;20617;-71
2021/08/15 18:55:09;;;;;;;6.60;3.23;;;24.80;36.70;;;;;;10373214;28;20221;-71
2021/08/15 19:00:14;;;;;;;3.80;3.40;;;24.70;37.70;;;;;;10370301;28;20238;-71
2021/08/15 19:05:18;;;;;;;4.47;3.40;;;24.60;37.40;;;;;;10370195;28;20249;-71
2021/08/15 19:10:22;;;;;;;4.77;3.57;;;24.50;37.30;;;;;;10367996;28;20328;-71
2021/08/15 19:15:26;;;;;;;4.70;3.50;;;24.50;38.10;;;;;;10367704;28;20234;-71
2021/08/15 19:20:32;;;;;;;4.63;3.63;;;24.50;37.70;;;;;;10366985;28;20317;-71
2021/08/15 19:25:37;;;;;;;6.43;3.67;;;24.50;37.90;;;;;;10355841;28;20679;-71
2021/08/15 19:30:41;;;;;;;5.03;3.50;;;24.30;38.50;;;;;;10365283;28;20703;-73
2021/08/15 19:35:45;;;;;;;4.80;3.50;;;24.20;38.50;;;;;;10358814;28;20600;-73
2021/08/15 19:40:50;;;;;;;5.10;3.60;;;24.20;38.50;;;;;;10360721;28;20242;-72
2021/08/15 19:45:53;;;;;;;4.40;3.70;;;24.20;39.20;;;;;;10352106;28;20228;-73
2021/08/15 19:50:57;;;;;;;4.43;3.90;;;24.20;38.50;;;;;;10357979;28;20710;-73
2021/08/15 19:56:01;;;;;;;4.10;3.70;;;24.20;38.60;;;;;;10354387;28;20538;-72
2021/08/15 20:01:05;;;;;;;3.63;3.33;;;24.10;39.30;;;;;;10348868;28;20234;-74
2021/08/15 20:06:09;;;;;;;4.13;3.53;;;24.10;39.30;;;;;;10352726;28;20242;-72
2021/08/15 20:11:14;;;;;;;5.70;3.60;;;24.10;38.80;;;;;;10356720;28;20243;-73
2021/08/15 20:16:17;;;;;;;4.00;3.60;;;24.10;40.10;;;;;;10352617;28;20250;-73
2021/08/15 20:21:20;;;;;;;4.97;3.37;;;24.10;39.00;;;;;;10360930;28;20222;-71
2021/08/15 20:26:25;;;;;;;4.13;3.73;;;24.10;39.00;;;;;;10355970;28;20227;-73
2021/08/15 20:31:28;;;;;;;4.07;3.67;;;24.20;39.80;;;;;;10354189;28;20233;-74
2021/08/15 20:36:32;;;;;;;5.10;3.87;;;24.20;38.80;;;;;;10362366;28;20263;-73
2021/08/15 20:41:37;;;;;;;5.03;3.67;;;24.20;39.10;;;;;;10356192;28;20345;-72
2021/08/15 20:46:41;;;;;;;4.60;3.70;;;24.20;39.40;;;;;;10363669;28;20248;-70
2021/08/15 20:51:44;;;;;;;7.97;3.80;;;24.20;39.20;;;;;;10353777;28;20230;-71
2021/08/15 20:56:50;;;;;;;5.03;3.97;;;24.10;39.20;;;;;;10364668;28;20225;-71
2021/08/15 21:01:54;;;;;;;3.97;3.57;;;24.20;40.20;;;;;;10360776;28;20234;-71
2021/08/15 21:06:58;;;;;;;6.50;4.33;;;24.10;39.00;;;;;;10358003;28;20247;-71
2021/08/15 21:12:02;;;;;;;5.03;4.17;;;24.10;39.50;;;;;;10359650;28;20232;-72
2021/08/15 21:17:06;;;;;;;5.97;4.33;;;24.10;40.10;;;;;;10398721;28;20222;-72
2021/08/15 21:22:09;;;;;;;4.10;3.70;;;24.00;39.60;;;;;;10396010;28;20233;-72
2021/08/15 21:27:14;;;;;;;4.77;4.37;;;23.90;39.40;;;;;;10398641;28;20352;-72
2021/08/15 21:32:17;;;;;;;4.40;3.63;;;23.90;39.90;;;;;;10401226;28;20272;-72
2021/08/15 21:37:20;;;;;;;4.70;3.87;;;24.00;40.00;;;;;;10403548;28;20256;-72
2021/08/15 21:42:25;;;;;;;5.63;4.20;;;24.00;40.00;;;;;;10396697;28;20225;-72
2021/08/15 21:47:28;;;;;;;6.10;4.77;;;23.90;39.90;;;;;;10400692;28;20233;-71
2021/08/15 21:52:32;;;;;;;7.17;4.10;;;23.80;39.80;;;;;;10397439;28;20234;-72
2021/08/15 21:57:37;;;;;;;6.93;4.33;;;23.70;39.80;;;;;;10395653;28;20226;-72
2021/08/15 22:02:41;;;;;;;6.60;4.50;;;23.60;40.50;;;;;;10398194;28;20887;-72
2021/08/15 22:07:44;;;;;;;8.20;4.30;;;23.60;39.80;;;;;;10402563;28;20222;-72
2021/08/15 22:12:48;;;;;;;4.73;3.90;;;23.60;39.70;;;;;;10402906;28;20221;-72
2021/08/15 22:17:52;;;;;;;8.83;4.97;;;23.60;40.70;;;;;;10390040;28;20217;-72
2021/08/15 22:22:56;;;;;;;5.23;4.43;;;23.50;40.30;;;;;;10407794;28;20337;-72
2021/08/15 22:28:01;;;;;;;6.77;5.03;;;23.50;40.20;;;;;;10399403;28;20628;-72
2021/08/15 22:33:04;;;;;;;8.13;4.80;;;23.50;40.90;;;;;;10398471;28;20225;-72
2021/08/15 22:38:07;;;;;;;4.73;4.23;;;23.50;40.40;;;;;;10402488;28;20229;-72
2021/08/15 22:43:12;;;;;;;6.33;4.83;;;23.50;40.40;;;;;;10402419;28;20226;-72
2021/08/15 22:48:15;;;;;;;5.63;4.97;;;23.40;41.10;;;;;;10404457;28;20236;-72
2021/08/15 22:53:18;;;;;;;5.23;4.73;;;23.50;40.70;;;;;;10408052;28;20733;-72
2021/08/15 22:58:23;;;;;;;7.03;4.77;;;23.50;40.70;;;;;;10407796;28;20599;-72
2021/08/15 23:03:26;;;;;;;6.03;5.10;;;23.50;41.20;;;;;;10397076;28;20237;-72
2021/08/15 23:08:29;;;;;;;4.70;4.13;;;23.40;40.40;;;;;;10400973;28;20221;-72
2021/08/15 23:13:34;;;;;;;5.57;4.50;;;23.40;40.60;;;;;;10405064;28;20285;-72
2021/08/15 23:18:37;;;;;;;5.60;4.33;;;23.30;40.90;;;;;;10400457;28;20604;-71
2021/08/15 23:23:40;;;;;;;8.50;5.20;;;23.40;40.90;;;;;;10400435;28;20718;-72
2021/08/15 23:28:45;;;;;;;6.70;4.30;;;23.30;40.60;;;;;;10409151;28;20241;-71
2021/08/15 23:33:48;;;;;;;5.07;4.43;;;23.30;40.90;;;;;;10410435;28;20610;-72
2021/08/15 23:38:51;;;;;;;6.13;3.97;;;23.30;40.60;;;;;;10407711;28;20244;-72
2021/08/15 23:43:56;;;;;;;5.33;4.40;;;23.20;40.70;;;;;;10399235;28;20225;-72
2021/08/15 23:48:59;;;;;;;4.90;4.20;;;23.20;41.60;;;;;;10405741;28;20225;-72
2021/08/15 23:54:02;;;;;;;5.63;4.03;;;23.10;41.00;;;;;;10402594;28;20233;-71
2021/08/15 23:59:08;;;;;;;5.83;3.80;;;23.10;41.00;;;;;;10408326;28;20225;-72
